sensor_id;sensor_type;location;lat;lon;timestamp;pressure;altitude;pressure_sealevel;temperature;humidity
42289;BME280;30230;47.520;19.016;2022-08-30T00:01:05;99264.09;;;20.92;80.73
42289;BME280;30230;47.520;19.016;2022-08-30T00:03:08;99269.56;;;20.92;80.47
42289;BME280;30230;47.520;19.016;2022-08-30T00:05:09;99268.22;;;20.89;80.86
42289;BME280;30230;47.520;19.016;2022-08-30T00:07:10;99267.41;;;20.94;80.37
42289;BME280;30230;47.520;19.016;2022-08-30T00:09:10;99263.25;;;20.91;80.87
42289;BME280;30230;47.520;19.016;2022-08-30T00:11:15;99266.28;;;20.90;80.77
42289;BME280;30230;47.520;19.016;2022-08-30T00:13:17;99269.28;;;20.93;81.13
42289;BME280;30230;47.520;19.016;2022-08-30T00:15:18;99265.47;;;20.89;80.70
42289;BME280;30230;47.520;19.016;2022-08-30T00:17:18;99271.78;;;20.95;80.82
42289;BME280;30230;47.520;19.016;2022-08-30T00:19:19;99278.38;;;20.94;80.82
42289;BME280;30230;47.520;19.016;2022-08-30T00:21:19;99270.97;;;20.94;80.73
42289;BME280;30230;47.520;19.016;2022-08-30T00:23:20;99268.22;;;20.94;80.85
42289;BME280;30230;47.520;19.016;2022-08-30T00:25:21;99268.75;;;20.91;80.68
42289;BME280;30230;47.520;19.016;2022-08-30T00:27:22;99266.28;;;20.90;80.95
42289;BME280;30230;47.520;19.016;2022-08-30T00:29:22;99263.81;;;20.88;81.03
42289;BME280;30230;47.520;19.016;2022-08-30T00:31:23;99270.69;;;20.91;81.00
42289;BME280;30230;47.520;19.016;2022-08-30T00:33:23;99264.38;;;20.90;80.72
42289;BME280;30230;47.520;19.016;2022-08-30T00:35:24;99264.38;;;20.90;80.45
42289;BME280;30230;47.520;19.016;2022-08-30T00:37:25;99262.72;;;20.89;79.53
42289;BME280;30230;47.520;19.016;2022-08-30T00:39:26;99271.78;;;20.90;78.87
42289;BME280;30230;47.520;19.016;2022-08-30T00:41:26;99276.16;;;20.86;79.13
42289;BME280;30230;47.520;19.016;2022-08-30T00:43:29;99267.09;;;20.80;78.44
42289;BME280;30230;47.520;19.016;2022-08-30T00:45:33;99265.97;;;20.76;78.97
42289;BME280;30230;47.520;19.016;2022-08-30T00:47:34;99267.06;;;20.70;78.43
42289;BME280;30230;47.520;19.016;2022-08-30T00:49:35;99265.41;;;20.69;78.99
42289;BME280;30230;47.520;19.016;2022-08-30T00:51:39;99265.13;;;20.65;79.09
42289;BME280;30230;47.520;19.016;2022-08-30T00:53:44;99258.25;;;20.63;77.94
42289;BME280;30230;47.520;19.016;2022-08-30T00:55:46;99269.25;;;20.63;78.32
42289;BME280;30230;47.520;19.016;2022-08-30T00:57:53;99269.47;;;20.56;78.90
42289;BME280;30230;47.520;19.016;2022-08-30T00:59:55;99260.41;;;20.55;79.63
42289;BME280;30230;47.520;19.016;2022-08-30T01:01:56;99272.50;;;20.54;80.64
42289;BME280;30230;47.520;19.016;2022-08-30T01:03:57;99267.81;;;20.50;81.33
42289;BME280;30230;47.520;19.016;2022-08-30T01:05:59;99271.88;;;20.42;82.04
42289;BME280;30230;47.520;19.016;2022-08-30T01:08:00;99264.19;;;20.44;81.61
42289;BME280;30230;47.520;19.016;2022-08-30T01:10:01;99262.25;;;20.40;82.22
42289;BME280;30230;47.520;19.016;2022-08-30T01:12:03;99261.13;;;20.36;82.67
42289;BME280;30230;47.520;19.016;2022-08-30T01:14:05;99258.13;;;20.37;81.76
42289;BME280;30230;47.520;19.016;2022-08-30T01:16:06;99261.94;;;20.36;81.89
42289;BME280;30230;47.520;19.016;2022-08-30T01:18:07;99253.16;;;20.34;82.06
42289;BME280;30230;47.520;19.016;2022-08-30T01:20:17;99252.88;;;20.30;81.88
42289;BME280;30230;47.520;19.016;2022-08-30T01:24:42;99260.78;;;20.17;83.69
42289;BME280;30230;47.520;19.016;2022-08-30T01:26:46;99260.19;;;20.15;83.51
42289;BME280;30230;47.520;19.016;2022-08-30T01:28:50;99257.19;;;20.11;83.84
42289;BME280;30230;47.520;19.016;2022-08-30T01:30:51;99252.78;;;20.10;83.41
42289;BME280;30230;47.520;19.016;2022-08-30T01:32:57;99260.75;;;20.12;83.13
42289;BME280;30230;47.520;19.016;2022-08-30T01:34:58;99248.97;;;20.11;83.37
42289;BME280;30230;47.520;19.016;2022-08-30T01:36:59;99254.16;;;20.08;83.60
42289;BME280;30230;47.520;19.016;2022-08-30T01:39:00;99251.38;;;20.02;83.62
42289;BME280;30230;47.520;19.016;2022-08-30T01:41:13;99253.00;;;19.98;84.35
42289;BME280;30230;47.520;19.016;2022-08-30T01:43:15;99243.41;;;19.96;84.68
42289;BME280;30230;47.520;19.016;2022-08-30T01:45:16;99246.66;;;19.93;83.90
42289;BME280;30230;47.520;19.016;2022-08-30T01:47:18;99251.31;;;19.92;83.87
42289;BME280;30230;47.520;19.016;2022-08-30T01:49:19;99243.09;;;19.92;83.63
42289;BME280;30230;47.520;19.016;2022-08-30T01:51:21;99246.34;;;19.89;83.21
42289;BME280;30230;47.520;19.016;2022-08-30T01:53:22;99243.09;;;19.92;83.16
42289;BME280;30230;47.520;19.016;2022-08-30T01:55:22;99243.09;;;19.92;82.98
42289;BME280;30230;47.520;19.016;2022-08-30T01:57:23;99235.69;;;19.93;82.66
42289;BME280;30230;47.520;19.016;2022-08-30T01:59:26;99240.34;;;19.92;82.51
42289;BME280;30230;47.520;19.016;2022-08-30T02:01:27;99244.19;;;19.91;82.69
42289;BME280;30230;47.520;19.016;2022-08-30T02:03:28;99245.56;;;19.94;82.69
42289;BME280;30230;47.520;19.016;2022-08-30T02:05:33;99244.19;;;19.91;82.98
42289;BME280;30230;47.520;19.016;2022-08-30T02:07:34;99238.44;;;19.93;83.15
42289;BME280;30230;47.520;19.016;2022-08-30T02:09:34;99242.28;;;19.92;82.89
42289;BME280;30230;47.520;19.016;2022-08-30T02:11:36;99237.88;;;19.91;83.25
42289;BME280;30230;47.520;19.016;2022-08-30T02:13:38;99241.44;;;19.91;82.95
42289;BME280;30230;47.520;19.016;2022-08-30T02:15:39;99240.31;;;19.87;83.01
42289;BME280;30230;47.520;19.016;2022-08-30T02:17:40;99238.66;;;19.81;83.62
42289;BME280;30230;47.520;19.016;2022-08-30T02:19:41;99232.34;;;19.81;83.89
42289;BME280;30230;47.520;19.016;2022-08-30T02:21:42;99234.50;;;19.78;83.38
42289;BME280;30230;47.520;19.016;2022-08-30T02:23:43;99227.06;;;19.74;83.48
42289;BME280;30230;47.520;19.016;2022-08-30T02:25:44;99223.47;;;19.68;83.90
42289;BME280;30230;47.520;19.016;2022-08-30T02:27:44;99228.91;;;19.63;84.47
42289;BME280;30230;47.520;19.016;2022-08-30T02:29:45;99226.38;;;19.57;84.74
42289;BME280;30230;47.520;19.016;2022-08-30T02:31:46;99236.78;;;19.55;85.04
42289;BME280;30230;47.520;19.016;2022-08-30T02:33:51;99237.81;;;19.48;85.87
42289;BME280;30230;47.520;19.016;2022-08-30T02:35:52;99234.53;;;19.46;86.28
42289;BME280;30230;47.520;19.016;2022-08-30T02:37:52;99233.16;;;19.44;86.47
42289;BME280;30230;47.520;19.016;2022-08-30T02:39:53;99232.31;;;19.43;86.20
42289;BME280;30230;47.520;19.016;2022-08-30T02:41:54;99235.84;;;19.39;86.37
42289;BME280;30230;47.520;19.016;2022-08-30T02:43:54;99231.16;;;19.34;87.29
42289;BME280;30230;47.520;19.016;2022-08-30T02:45:58;99235.50;;;19.30;86.92
42289;BME280;30230;47.520;19.016;2022-08-30T02:47:58;99239.88;;;19.31;87.34
42289;BME280;30230;47.520;19.016;2022-08-30T02:50:01;99241.53;;;19.32;87.81
42289;BME280;30230;47.520;19.016;2022-08-30T02:52:03;99238.28;;;19.35;87.40
42289;BME280;30230;47.520;19.016;2022-08-30T02:54:04;99237.19;;;19.36;87.47
42289;BME280;30230;47.520;19.016;2022-08-30T02:56:04;99239.97;;;19.41;87.49
42289;BME280;30230;47.520;19.016;2022-08-30T02:58:05;99231.25;;;19.44;86.73
42289;BME280;30230;47.520;19.016;2022-08-30T03:00:07;99226.59;;;19.45;86.62
42289;BME280;30230;47.520;19.016;2022-08-30T03:02:10;99228.50;;;19.44;86.80
42289;BME280;30230;47.520;19.016;2022-08-30T03:04:10;99230.41;;;19.44;86.75
42289;BME280;30230;47.520;19.016;2022-08-30T03:06:12;99232.28;;;19.38;87.39
42289;BME280;30230;47.520;19.016;2022-08-30T03:08:12;99230.38;;;19.39;86.18
42289;BME280;30230;47.520;19.016;2022-08-30T03:10:14;99229.25;;;19.35;86.72
42289;BME280;30230;47.520;19.016;2022-08-30T03:12:15;99236.91;;;19.38;86.71
42289;BME280;30230;47.520;19.016;2022-08-30T03:14:15;99235.28;;;19.37;85.99
42289;BME280;30230;47.520;19.016;2022-08-30T03:16:16;99237.09;;;19.26;87.56
42289;BME280;30230;47.520;19.016;2022-08-30T03:18:18;99238.75;;;19.27;87.76
42289;BME280;30230;47.520;19.016;2022-08-30T03:20:20;99238.47;;;19.23;87.22
42289;BME280;30230;47.520;19.016;2022-08-30T03:22:21;99238.66;;;19.17;87.70
42289;BME280;30230;47.520;19.016;2022-08-30T03:24:21;99245.28;;;19.21;87.38
42289;BME280;30230;47.520;19.016;2022-08-30T03:26:22;99249.06;;;19.15;87.96
42289;BME280;30230;47.520;19.016;2022-08-30T03:28:22;99252.06;;;19.13;87.78
42289;BME280;30230;47.520;19.016;2022-08-30T03:30:23;99252.84;;;19.09;88.18
42289;BME280;30230;47.520;19.016;2022-08-30T03:32:24;99245.41;;;19.04;89.23
42289;BME280;30230;47.520;19.016;2022-08-30T03:34:25;99253.09;;;19.07;88.98
42289;BME280;30230;47.520;19.016;2022-08-30T03:36:26;99255.78;;;19.02;89.55
42289;BME280;30230;47.520;19.016;2022-08-30T03:38:26;99258.78;;;19.00;88.99
42289;BME280;30230;47.520;19.016;2022-08-30T03:40:27;99258.28;;;19.04;88.65
42289;BME280;30230;47.520;19.016;2022-08-30T03:42:27;99257.13;;;18.99;88.59
42289;BME280;30230;47.520;19.016;2022-08-30T03:44:27;99258.72;;;18.95;89.58
42289;BME280;30230;47.520;19.016;2022-08-30T03:46:28;99260.38;;;18.96;89.22
42289;BME280;30230;47.520;19.016;2022-08-30T03:48:29;99257.63;;;18.96;89.71
42289;BME280;30230;47.520;19.016;2022-08-30T03:50:30;99267.53;;;18.97;89.63
42289;BME280;30230;47.520;19.016;2022-08-30T03:52:30;99271.84;;;18.93;89.80
42289;BME280;30230;47.520;19.016;2022-08-30T03:54:31;99274.31;;;18.95;90.38
42289;BME280;30230;47.520;19.016;2022-08-30T03:56:31;99270.44;;;18.91;89.75
42289;BME280;30230;47.520;19.016;2022-08-30T03:58:32;99271.53;;;18.90;90.45
42289;BME280;30230;47.520;19.016;2022-08-30T04:00:33;99276.50;;;18.93;90.01
42289;BME280;30230;47.520;19.016;2022-08-30T04:02:34;99270.72;;;18.89;90.01
42289;BME280;30230;47.520;19.016;2022-08-30T04:04:34;99275.88;;;18.86;90.84
42289;BME280;30230;47.520;19.016;2022-08-30T04:06:34;99273.13;;;18.86;91.45
42289;BME280;30230;47.520;19.016;2022-08-30T04:08:35;99270.66;;;18.84;90.96
42289;BME280;30230;47.520;19.016;2022-08-30T04:10:35;99269.56;;;18.85;90.26
42289;BME280;30230;47.520;19.016;2022-08-30T04:12:36;99274.75;;;18.82;91.07
42289;BME280;30230;47.520;19.016;2022-08-30T04:14:37;99268.13;;;18.78;91.25
42289;BME280;30230;47.520;19.016;2022-08-30T04:16:37;99282.38;;;18.80;91.22
42289;BME280;30230;47.520;19.016;2022-08-30T04:18:38;99287.03;;;18.79;91.31
42289;BME280;30230;47.520;19.016;2022-08-30T04:20:38;99284.78;;;18.76;91.50
42289;BME280;30230;47.520;19.016;2022-08-30T04:22:39;99295.50;;;18.78;91.69
42289;BME280;30230;47.520;19.016;2022-08-30T04:24:39;99301.78;;;18.78;91.80
42289;BME280;30230;47.520;19.016;2022-08-30T04:26:41;99302.28;;;18.75;92.48
42289;BME280;30230;47.520;19.016;2022-08-30T04:28:41;99305.63;;;18.77;91.97
42289;BME280;30230;47.520;19.016;2022-08-30T04:30:43;99310.56;;;18.80;92.05
42289;BME280;30230;47.520;19.016;2022-08-30T04:32:44;99313.31;;;18.80;91.85
42289;BME280;30230;47.520;19.016;2022-08-30T04:34:44;99313.63;;;18.84;92.41
42289;BME280;30230;47.520;19.016;2022-08-30T04:36:45;99310.13;;;18.88;92.18
42289;BME280;30230;47.520;19.016;2022-08-30T04:38:46;99323.88;;;18.93;92.14
42289;BME280;30230;47.520;19.016;2022-08-30T04:40:47;99325.56;;;18.99;92.00
42289;BME280;30230;47.520;19.016;2022-08-30T04:42:47;99325.66;;;19.10;91.85
42289;BME280;30230;47.520;19.016;2022-08-30T04:44:48;99329.41;;;19.25;90.27
42289;BME280;30230;47.520;19.016;2022-08-30T04:46:50;99336.88;;;19.35;89.93
42289;BME280;30230;47.520;19.016;2022-08-30T04:48:50;99316.41;;;19.43;89.88
42289;BME280;30230;47.520;19.016;2022-08-30T04:50:50;99328.81;;;19.50;89.85
42289;BME280;30230;47.520;19.016;2022-08-30T04:52:51;99322.66;;;19.65;89.28
42289;BME280;30230;47.520;19.016;2022-08-30T04:54:55;99329.00;;;19.71;88.58
42289;BME280;30230;47.520;19.016;2022-08-30T04:56:57;99333.72;;;19.75;87.97
42289;BME280;30230;47.520;19.016;2022-08-30T04:58:57;99334.56;;;19.81;87.54
42289;BME280;30230;47.520;19.016;2022-08-30T05:00:57;99335.13;;;19.83;88.19
42289;BME280;30230;47.520;19.016;2022-08-30T05:02:59;99343.66;;;19.87;89.23
42289;BME280;30230;47.520;19.016;2022-08-30T05:05:00;99332.13;;;19.85;89.75
42289;BME280;30230;47.520;19.016;2022-08-30T05:07:19;99341.78;;;19.92;89.29
42289;BME280;30230;47.520;19.016;2022-08-30T05:09:20;99338.53;;;19.95;88.86
42289;BME280;30230;47.520;19.016;2022-08-30T05:11:21;99342.94;;;20.01;88.47
42289;BME280;30230;47.520;19.016;2022-08-30T05:13:21;99351.22;;;20.07;87.86
42289;BME280;30230;47.520;19.016;2022-08-30T05:15:22;99351.81;;;20.14;86.50
42289;BME280;30230;47.520;19.016;2022-08-30T05:17:23;99354.88;;;20.22;86.44
42289;BME280;30230;47.520;19.016;2022-08-30T05:19:24;99347.81;;;20.32;85.59
42289;BME280;30230;47.520;19.016;2022-08-30T05:21:25;99338.75;;;20.36;84.53
42289;BME280;30230;47.520;19.016;2022-08-30T05:23:26;99342.66;;;20.45;83.41
42289;BME280;30230;47.520;19.016;2022-08-30T05:25:33;99346.03;;;20.52;83.05
42289;BME280;30230;47.520;19.016;2022-08-30T05:27:36;99340.56;;;20.58;82.72
42289;BME280;30230;47.520;19.016;2022-08-30T05:29:37;99348.00;;;20.67;82.12
42289;BME280;30230;47.520;19.016;2022-08-30T05:31:37;99339.78;;;20.72;81.70
42289;BME280;30230;47.520;19.016;2022-08-30T05:33:37;99341.72;;;20.77;80.97
42289;BME280;30230;47.520;19.016;2022-08-30T05:35:38;99349.75;;;20.84;80.56
42289;BME280;30230;47.520;19.016;2022-08-30T05:37:40;99356.06;;;20.89;80.13
42289;BME280;30230;47.520;19.016;2022-08-30T05:39:40;99349.78;;;20.94;79.84
42289;BME280;30230;47.520;19.016;2022-08-30T05:41:41;99352.78;;;20.92;79.61
42289;BME280;30230;47.520;19.016;2022-08-30T05:43:41;99350.03;;;20.92;78.02
42289;BME280;30230;47.520;19.016;2022-08-30T05:45:42;99352.78;;;20.97;78.21
42289;BME280;30230;47.520;19.016;2022-08-30T05:47:42;99345.38;;;20.98;78.17
42289;BME280;30230;47.520;19.016;2022-08-30T05:49:42;99347.56;;;20.96;76.15
42289;BME280;30230;47.520;19.016;2022-08-30T05:51:43;99355.84;;;21.01;76.53
42289;BME280;30230;47.520;19.016;2022-08-30T05:53:44;99358.31;;;21.02;78.43
42289;BME280;30230;47.520;19.016;2022-08-30T05:55:45;99366.84;;;21.06;77.77
42289;BME280;30230;47.520;19.016;2022-08-30T05:57:45;99361.88;;;21.08;75.96
42289;BME280;30230;47.520;19.016;2022-08-30T05:59:46;99370.69;;;21.10;74.41
42289;BME280;30230;47.520;19.016;2022-08-30T06:01:47;99367.41;;;21.18;74.28
42289;BME280;30230;47.520;19.016;2022-08-30T06:03:47;99364.13;;;21.16;73.26
42289;BME280;30230;47.520;19.016;2022-08-30T06:05:48;99360.56;;;21.21;73.10
42289;BME280;30230;47.520;19.016;2022-08-30T06:07:48;99357.81;;;21.26;72.61
42289;BME280;30230;47.520;19.016;2022-08-30T06:09:49;99369.06;;;21.29;72.73
42289;BME280;30230;47.520;19.016;2022-08-30T06:11:49;99364.47;;;21.30;70.56
42289;BME280;30230;47.520;19.016;2022-08-30T06:13:51;99366.59;;;21.28;69.95
42289;BME280;30230;47.520;19.016;2022-08-30T06:15:52;99363.09;;;21.32;70.63
42289;BME280;30230;47.520;19.016;2022-08-30T06:17:52;99367.50;;;21.54;73.28
42289;BME280;30230;47.520;19.016;2022-08-30T06:19:53;99370.84;;;21.71;74.75
42289;BME280;30230;47.520;19.016;2022-08-30T06:21:53;99379.91;;;21.82;72.43
42289;BME280;30230;47.520;19.016;2022-08-30T06:23:55;99370.56;;;21.83;70.72
42289;BME280;30230;47.520;19.016;2022-08-30T06:25:56;99366.72;;;21.79;70.73
42289;BME280;30230;47.520;19.016;2022-08-30T06:27:56;99370.28;;;21.79;69.39
42289;BME280;30230;47.520;19.016;2022-08-30T06:29:57;99370.00;;;21.86;69.88
42289;BME280;30230;47.520;19.016;2022-08-30T06:31:57;99359.00;;;21.81;67.49
42289;BME280;30230;47.520;19.016;2022-08-30T06:33:58;99367.00;;;21.88;66.87
42289;BME280;30230;47.520;19.016;2022-08-30T06:36:07;99371.38;;;21.94;67.60
42289;BME280;30230;47.520;19.016;2022-08-30T06:38:08;99374.13;;;21.94;66.21
42289;BME280;30230;47.520;19.016;2022-08-30T06:40:09;99365.31;;;22.02;64.56
42289;BME280;30230;47.520;19.016;2022-08-30T06:42:10;99363.41;;;21.97;63.14
42289;BME280;30230;47.520;19.016;2022-08-30T06:44:10;99363.97;;;21.94;62.76
42289;BME280;30230;47.520;19.016;2022-08-30T06:46:14;99369.75;;;21.93;63.53
42289;BME280;30230;47.520;19.016;2022-08-30T06:48:15;99363.41;;;21.92;64.02
42289;BME280;30230;47.520;19.016;2022-08-30T06:50:16;99370.56;;;21.98;64.43
42289;BME280;30230;47.520;19.016;2022-08-30T06:52:17;99371.09;;;21.95;64.17
42289;BME280;30230;47.520;19.016;2022-08-30T06:54:17;99370.00;;;21.96;62.64
42289;BME280;30230;47.520;19.016;2022-08-30T06:56:18;99373.84;;;22.00;61.85
42289;BME280;30230;47.520;19.016;2022-08-30T06:58:18;99372.50;;;22.03;61.22
42289;BME280;30230;47.520;19.016;2022-08-30T07:00:19;99378.53;;;22.10;61.57
42289;BME280;30230;47.520;19.016;2022-08-30T07:02:19;99378.53;;;22.30;63.40
42289;BME280;30230;47.520;19.016;2022-08-30T07:04:20;99365.28;;;22.32;62.82
42289;BME280;30230;47.520;19.016;2022-08-30T07:06:22;99387.31;;;22.38;60.45
42289;BME280;30230;47.520;19.016;2022-08-30T07:08:23;99386.22;;;22.44;59.94
42289;BME280;30230;47.520;19.016;2022-08-30T07:10:23;99388.09;;;22.53;58.81
42289;BME280;30230;47.520;19.016;2022-08-30T07:12:24;99384.22;;;22.65;58.28
42289;BME280;30230;47.520;19.016;2022-08-30T07:14:24;99369.91;;;22.62;58.54
42289;BME280;30230;47.520;19.016;2022-08-30T07:16:25;99389.13;;;22.88;56.69
42289;BME280;30230;47.520;19.016;2022-08-30T07:18:25;99387.44;;;22.87;56.31
42289;BME280;30230;47.520;19.016;2022-08-30T07:20:45;99388.56;;;22.91;57.50
42289;BME280;30230;47.520;19.016;2022-08-30T07:22:46;99387.41;;;23.07;55.82
42289;BME280;30230;47.520;19.016;2022-08-30T07:24:46;99386.00;;;23.10;55.68
42289;BME280;30230;47.520;19.016;2022-08-30T07:26:49;99390.34;;;23.26;54.69
42289;BME280;30230;47.520;19.016;2022-08-30T07:28:51;99391.56;;;23.49;55.46
42289;BME280;30230;47.520;19.016;2022-08-30T07:30:51;99398.66;;;23.60;55.08
42289;BME280;30230;47.520;19.016;2022-08-30T07:32:51;99395.22;;;23.84;54.70
42289;BME280;30230;47.520;19.016;2022-08-30T07:34:52;99399.66;;;24.14;54.20
42289;BME280;30230;47.520;19.016;2022-08-30T07:36:52;99396.09;;;24.42;52.83
42289;BME280;30230;47.520;19.016;2022-08-30T07:38:53;99391.63;;;24.71;51.95
42289;BME280;30230;47.520;19.016;2022-08-30T07:40:53;99392.09;;;25.02;51.08
42289;BME280;30230;47.520;19.016;2022-08-30T07:42:54;99387.41;;;25.02;50.17
42289;BME280;30230;47.520;19.016;2022-08-30T07:44:54;99395.22;;;25.19;49.54
42289;BME280;30230;47.520;19.016;2022-08-30T07:46:55;99389.94;;;24.99;49.74
42289;BME280;30230;47.520;19.016;2022-08-30T07:48:58;99391.63;;;24.94;48.39
42289;BME280;30230;47.520;19.016;2022-08-30T07:50:59;99394.78;;;24.88;48.39
42289;BME280;30230;47.520;19.016;2022-08-30T07:53:00;99395.41;;;24.80;49.35
42289;BME280;30230;47.520;19.016;2022-08-30T07:55:00;99400.28;;;24.88;48.36
42289;BME280;30230;47.520;19.016;2022-08-30T07:57:01;99390.16;;;25.07;48.84
42289;BME280;30230;47.520;19.016;2022-08-30T07:59:01;99384.31;;;25.09;48.34
42289;BME280;30230;47.520;19.016;2022-08-30T08:01:07;99388.06;;;25.18;47.96
42289;BME280;30230;47.520;19.016;2022-08-30T08:03:09;99399.88;;;25.42;47.20
42289;BME280;30230;47.520;19.016;2022-08-30T08:05:09;99398.47;;;25.64;45.33
42289;BME280;30230;47.520;19.016;2022-08-30T08:07:10;99391.66;;;25.56;45.73
42289;BME280;30230;47.520;19.016;2022-08-30T08:09:10;99390.84;;;25.56;47.25
42289;BME280;30230;47.520;19.016;2022-08-30T08:11:14;99383.22;;;25.66;45.66
42289;BME280;30230;47.520;19.016;2022-08-30T08:13:15;99395.88;;;25.54;46.73
42289;BME280;30230;47.520;19.016;2022-08-30T08:15:15;99396.09;;;25.38;47.60
42289;BME280;30230;47.520;19.016;2022-08-30T08:17:16;99394.28;;;25.29;47.74
42289;BME280;30230;47.520;19.016;2022-08-30T08:19:16;99392.91;;;25.26;47.94
42289;BME280;30230;47.520;19.016;2022-08-30T08:21:18;99390.06;;;25.12;48.06
42289;BME280;30230;47.520;19.016;2022-08-30T08:23:19;99390.25;;;24.97;48.20
42289;BME280;30230;47.520;19.016;2022-08-30T08:25:21;99396.66;;;24.92;48.83
42289;BME280;30230;47.520;19.016;2022-08-30T08:27:22;99395.47;;;24.99;48.01
42289;BME280;30230;47.520;19.016;2022-08-30T08:29:23;99400.38;;;25.02;47.48
42289;BME280;30230;47.520;19.016;2022-08-30T08:31:26;99389.56;;;25.05;47.70
42289;BME280;30230;47.520;19.016;2022-08-30T08:33:27;99393.41;;;25.09;47.46
42289;BME280;30230;47.520;19.016;2022-08-30T08:35:28;99387.41;;;25.02;46.88
42289;BME280;30230;47.520;19.016;2022-08-30T08:37:28;99392.28;;;25.10;47.57
42289;BME280;30230;47.520;19.016;2022-08-30T08:39:29;99396.63;;;25.16;47.42
42289;BME280;30230;47.520;19.016;2022-08-30T08:43:33;99396.44;;;25.32;45.92
42289;BME280;30230;47.520;19.016;2022-08-30T08:46:00;99395.28;;;25.76;45.88
42289;BME280;30230;47.520;19.016;2022-08-30T08:48:25;99391.75;;;26.21;45.14
42289;BME280;30230;47.520;19.016;2022-08-30T08:50:28;99395.44;;;26.31;45.90
42289;BME280;30230;47.520;19.016;2022-08-30T08:52:35;99389.38;;;26.29;46.57
42289;BME280;30230;47.520;19.016;2022-08-30T08:55:07;99385.56;;;26.11;46.80
42289;BME280;30230;47.520;19.016;2022-08-30T08:57:09;99392.19;;;26.10;47.25
42289;BME280;30230;47.520;19.016;2022-08-30T08:59:11;99397.78;;;26.23;47.28
42289;BME280;30230;47.520;19.016;2022-08-30T09:01:16;99392.06;;;26.34;45.18
42289;BME280;30230;47.520;19.016;2022-08-30T09:03:20;99385.63;;;26.38;46.21
42289;BME280;30230;47.520;19.016;2022-08-30T09:05:22;99394.25;;;26.37;45.79
42289;BME280;30230;47.520;19.016;2022-08-30T09:07:27;99387.41;;;26.62;45.10
42289;BME280;30230;47.520;19.016;2022-08-30T09:09:34;99388.84;;;26.45;44.88
42289;BME280;30230;47.520;19.016;2022-08-30T09:11:36;99386.13;;;26.27;45.65
42289;BME280;30230;47.520;19.016;2022-08-30T09:13:38;99378.75;;;26.03;45.85
42289;BME280;30230;47.520;19.016;2022-08-30T09:15:39;99389.53;;;26.05;46.76
42289;BME280;30230;47.520;19.016;2022-08-30T09:18:06;99382.88;;;26.06;46.34
42289;BME280;30230;47.520;19.016;2022-08-30T09:20:08;99383.63;;;26.11;47.15
42289;BME280;30230;47.520;19.016;2022-08-30T09:24:14;99377.63;;;26.04;47.28
42289;BME280;30230;47.520;19.016;2022-08-30T09:26:27;99372.53;;;26.11;47.75
42289;BME280;30230;47.520;19.016;2022-08-30T09:28:33;99375.69;;;26.05;47.93
42289;BME280;30230;47.520;19.016;2022-08-30T09:30:37;99369.97;;;26.15;47.23
42289;BME280;30230;47.520;19.016;2022-08-30T09:32:41;99367.28;;;26.10;46.43
42289;BME280;30230;47.520;19.016;2022-08-30T09:34:42;99368.34;;;26.14;46.33
42289;BME280;30230;47.520;19.016;2022-08-30T09:36:48;99364.44;;;26.15;46.17
42289;BME280;30230;47.520;19.016;2022-08-30T09:39:02;99357.06;;;26.24;45.77
42289;BME280;30230;47.520;19.016;2022-08-30T09:43:33;99360.84;;;26.74;45.84
42289;BME280;30230;47.520;19.016;2022-08-30T09:45:37;99347.47;;;27.04;45.61
42289;BME280;30230;47.520;19.016;2022-08-30T09:47:41;99348.69;;;27.25;44.36
42289;BME280;30230;47.520;19.016;2022-08-30T09:49:42;99348.22;;;27.46;44.16
42289;BME280;30230;47.520;19.016;2022-08-30T09:51:58;99348.47;;;27.36;43.97
42289;BME280;30230;47.520;19.016;2022-08-30T09:56:38;99343.59;;;28.00;42.13
42289;BME280;30230;47.520;19.016;2022-08-30T10:01:14;99328.53;;;28.23;41.57
42289;BME280;30230;47.520;19.016;2022-08-30T10:03:43;99331.59;;;28.44;40.60
42289;BME280;30230;47.520;19.016;2022-08-30T10:06:08;99326.56;;;28.55;41.86
42289;BME280;30230;47.520;19.016;2022-08-30T10:08:42;99322.25;;;28.80;39.97
42289;BME280;30230;47.520;19.016;2022-08-30T10:24:33;99322.19;;;29.28;38.97
42289;BME280;30230;47.520;19.016;2022-08-30T10:26:42;99328.09;;;29.62;37.87
42289;BME280;30230;47.520;19.016;2022-08-30T10:28:48;99324.50;;;29.78;36.78
42289;BME280;30230;47.520;19.016;2022-08-30T10:31:02;99323.50;;;29.83;37.46
42289;BME280;30230;47.520;19.016;2022-08-30T10:33:16;99320.59;;;29.53;36.82
42289;BME280;30230;47.520;19.016;2022-08-30T10:35:21;99317.63;;;29.41;37.47
42289;BME280;30230;47.520;19.016;2022-08-30T10:37:25;99321.81;;;28.95;38.00
42289;BME280;30230;47.520;19.016;2022-08-30T10:39:30;99315.81;;;28.62;39.28
42289;BME280;30230;47.520;19.016;2022-08-30T10:41:37;99318.00;;;28.83;39.30
42289;BME280;30230;47.520;19.016;2022-08-30T10:45:55;99314.22;;;28.78;38.59
42289;BME280;30230;47.520;19.016;2022-08-30T10:48:18;99303.03;;;29.01;39.58
42289;BME280;30230;47.520;19.016;2022-08-30T10:50:28;99298.78;;;29.47;38.85
42289;BME280;30230;47.520;19.016;2022-08-30T10:54:56;99299.69;;;30.03;35.85
42289;BME280;30230;47.520;19.016;2022-08-30T10:56:59;99307.25;;;29.94;36.86
42289;BME280;30230;47.520;19.016;2022-08-30T10:58:59;99302.66;;;30.15;35.60
42289;BME280;30230;47.520;19.016;2022-08-30T11:06:10;99286.47;;;30.38;35.89
42289;BME280;30230;47.520;19.016;2022-08-30T11:08:44;99287.97;;;30.35;36.60
42289;BME280;30230;47.520;19.016;2022-08-30T11:13:13;99286.44;;;30.47;35.61
42289;BME280;30230;47.520;19.016;2022-08-30T11:15:18;99281.28;;;30.66;35.96
42289;BME280;30230;47.520;19.016;2022-08-30T11:19:37;99287.72;;;30.88;35.27
42289;BME280;30230;47.520;19.016;2022-08-30T11:21:41;99273.38;;;30.98;34.39
42289;BME280;30230;47.520;19.016;2022-08-30T11:26:10;99279.38;;;31.08;33.74